createdAt,value
2023-03-05T00:00:15.743Z,99794.66
2023-03-05T00:01:11.023Z,99796.13
2023-03-05T00:01:58.067Z,99794.31
2023-03-05T00:02:45.146Z,99791.50
2023-03-05T00:03:32.284Z,99794.06
2023-03-05T00:04:19.365Z,99791.34
2023-03-05T00:05:07.090Z,99788.53
2023-03-05T00:05:57.933Z,99791.47
2023-03-05T00:06:45.115Z,99784.97
2023-03-05T00:07:32.185Z,99785.41
2023-03-05T00:08:19.306Z,99788.66
2023-03-05T00:09:06.763Z,99787.44
2023-03-05T00:09:53.698Z,99785.50
2023-03-05T00:10:40.755Z,99789.19
2023-03-05T00:11:30.383Z,99785.56
2023-03-05T00:12:17.426Z,99785.16
2023-03-05T00:13:04.408Z,99783.66
2023-03-05T00:13:54.538Z,99784.66
2023-03-05T00:14:41.490Z,99782.72
2023-03-05T00:15:28.507Z,99786.81
2023-03-05T00:16:16.590Z,99791.00
2023-03-05T00:17:03.653Z,99788.66
2023-03-05T00:17:50.643Z,99793.84
2023-03-05T00:18:38.667Z,99792.19
2023-03-05T00:19:25.635Z,99792.03
2023-03-05T00:20:13.067Z,99785.63
2023-03-05T00:21:00.158Z,99788.41
2023-03-05T00:21:47.144Z,99779.59
2023-03-05T00:22:35.625Z,99780.44
2023-03-05T00:23:22.665Z,99781.41
2023-03-05T00:24:18.442Z,99778.88
2023-03-05T00:25:06.281Z,99780.06
2023-03-05T00:25:53.219Z,99779.63
2023-03-05T00:26:40.640Z,99784.69
2023-03-05T00:27:27.719Z,99783.25
2023-03-05T00:28:14.999Z,99778.41
2023-03-05T00:29:02.483Z,99778.09
2023-03-05T00:29:49.531Z,99774.72
2023-03-05T00:30:36.852Z,99777.16
2023-03-05T00:31:32.605Z,99776.44
2023-03-05T00:32:19.795Z,99774.31
2023-03-05T00:33:07.310Z,99783.84
2023-03-05T00:33:55.293Z,99776.72
2023-03-05T00:34:42.383Z,99781.06
2023-03-05T00:35:30.610Z,99770.41
2023-03-05T00:36:17.725Z,99771.94
2023-03-05T00:37:04.817Z,99770.16
2023-03-05T00:37:51.787Z,99767.91
2023-03-05T00:38:39.192Z,99772.69
2023-03-05T00:39:26.268Z,99773.66
2023-03-05T00:40:13.470Z,99767.66
2023-03-05T00:41:00.552Z,99768.19
2023-03-05T00:41:47.917Z,99763.69
2023-03-05T00:42:38.867Z,99768.62
2023-03-05T00:43:25.861Z,99765.97
2023-03-05T00:44:13.322Z,99762.31
2023-03-05T00:45:17.046Z,99754.31
2023-03-05T00:46:04.474Z,99754.31
2023-03-05T00:46:51.561Z,99765.13
2023-03-05T00:47:39.040Z,99766.81
2023-03-05T00:48:25.958Z,99759.22
2023-03-05T00:49:13.382Z,99762.06
2023-03-05T00:50:00.521Z,99758.50
2023-03-05T00:50:47.511Z,99757.13
2023-03-05T00:51:34.638Z,99759.66
2023-03-05T00:52:21.670Z,99761.62
2023-03-05T00:53:08.669Z,99762.19
2023-03-05T00:53:56.206Z,99758.66
2023-03-05T00:54:43.194Z,99759.78
2023-03-05T00:55:30.224Z,99755.03
2023-03-05T00:56:17.312Z,99755.16
2023-03-05T00:57:06.075Z,99757.69
2023-03-05T00:57:53.064Z,99753.34
2023-03-05T00:58:40.286Z,99753.88
2023-03-05T00:59:27.318Z,99751.94
2023-03-05T01:00:15.233Z,99753.19
2023-03-05T01:01:03.056Z,99749.37
2023-03-05T01:01:50.233Z,99750.97
2023-03-05T01:02:37.375Z,99754.72
2023-03-05T01:03:24.365Z,99747.88
2023-03-05T01:04:11.361Z,99747.44
2023-03-05T01:04:58.440Z,99752.50
2023-03-05T01:05:45.692Z,99745.75
2023-03-05T01:06:32.841Z,99747.72
2023-03-05T01:07:19.991Z,99744.50
2023-03-05T01:08:07.037Z,99747.03
2023-03-05T01:08:54.195Z,99744.78
2023-03-05T01:09:41.190Z,99743.09
2023-03-05T01:10:29.322Z,99750.94
2023-03-05T01:11:16.379Z,99743.50
2023-03-05T01:12:03.500Z,99743.94
2023-03-05T01:12:50.539Z,99742.84
2023-03-05T01:13:38.086Z,99743.66
2023-03-05T01:14:25.049Z,99743.66
2023-03-05T01:15:12.479Z,99743.38
2023-03-05T01:15:59.546Z,99744.38
2023-03-05T01:16:46.892Z,99743.38
2023-03-05T01:17:34.742Z,99742.09
2023-03-05T01:18:21.872Z,99751.13
2023-03-05T01:19:09.181Z,99742.41
2023-03-05T01:19:56.362Z,99743.94
2023-03-05T01:20:43.841Z,99739.00
2023-03-05T01:21:31.003Z,99747.16
2023-03-05T01:22:18.033Z,99740.44
2023-03-05T01:23:05.204Z,99742.84
2023-03-05T01:23:52.372Z,99748.16
2023-03-05T01:24:39.494Z,99742.41
2023-03-05T01:25:26.474Z,99747.75
2023-03-05T01:26:14.110Z,99743.94
2023-03-05T01:27:01.136Z,99745.78
2023-03-05T01:27:48.131Z,99744.22
2023-03-05T01:28:35.352Z,99740.84
2023-03-05T01:29:22.421Z,99746.47
2023-03-05T01:30:10.399Z,99742.25
2023-03-05T01:30:57.437Z,99743.50
2023-03-05T01:31:44.690Z,99743.66
2023-03-05T01:32:32.031Z,99747.56
2023-03-05T01:33:19.604Z,99743.09
2023-03-05T01:34:06.616Z,99746.19
2023-03-05T01:34:53.710Z,99746.19
2023-03-05T01:35:40.781Z,99748.97
2023-03-05T01:36:27.844Z,99743.09
2023-03-05T01:37:14.882Z,99745.06
2023-03-05T01:38:01.960Z,99744.22
2023-03-05T01:38:49.069Z,99743.66
2023-03-05T01:39:36.649Z,99734.69
2023-03-05T01:40:29.180Z,99738.44
2023-03-05T01:41:17.596Z,99734.09
2023-03-05T01:42:05.083Z,99738.75
2023-03-05T01:43:02.229Z,99737.62
2023-03-05T01:43:49.757Z,99740.72
2023-03-05T01:44:36.808Z,99737.34
2023-03-05T01:45:25.184Z,99739.44
2023-03-05T01:46:35.710Z,99737.59
2023-03-05T01:47:22.698Z,99737.03
2023-03-05T01:48:09.633Z,99738.88
2023-03-05T01:49:20.321Z,99730.19
2023-03-05T01:50:10.084Z,99737.03
2023-03-05T01:50:57.222Z,99735.06
2023-03-05T01:51:49.835Z,99733.53
2023-03-05T01:52:38.932Z,99736.78
2023-03-05T01:53:25.884Z,99738.75
2023-03-05T01:54:14.458Z,99727.91
2023-03-05T01:55:09.402Z,99740.53
2023-03-05T01:55:56.415Z,99732.53
2023-03-05T01:56:44.034Z,99737.34
2023-03-05T01:57:40.839Z,99723.69
2023-03-05T01:58:28.110Z,99739.41
2023-03-05T01:59:15.817Z,99732.94
2023-03-05T02:00:10.672Z,99734.25
2023-03-05T02:00:57.928Z,99732.94
2023-03-05T02:01:47.124Z,99736.31
2023-03-05T02:02:34.205Z,99735.91
2023-03-05T02:03:23.144Z,99732.53
2023-03-05T02:04:12.382Z,99734.66
2023-03-05T02:05:09.076Z,99728.75
2023-03-05T02:05:56.098Z,99725.09
2023-03-05T02:06:43.732Z,99729.59
2023-03-05T02:07:31.875Z,99730.56
2023-03-05T02:08:21.127Z,99733.66
2023-03-05T02:09:08.220Z,99732.25
2023-03-05T02:09:55.172Z,99732.84
2023-03-05T02:10:57.597Z,99730.31
2023-03-05T02:11:44.619Z,99729.31
2023-03-05T02:12:31.725Z,99732.53
2023-03-05T02:13:22.974Z,99732.13
2023-03-05T02:14:10.517Z,99731.56
2023-03-05T02:14:59.663Z,99724.53
2023-03-05T02:15:48.008Z,99723.28
2023-03-05T02:16:38.465Z,99727.47
2023-03-05T02:17:28.074Z,99725.66
2023-03-05T02:18:15.054Z,99727.06
2023-03-05T02:19:07.023Z,99721.31
2023-03-05T02:19:57.337Z,99728.31
2023-03-05T02:20:57.868Z,99721.16
2023-03-05T02:21:47.440Z,99723.00
2023-03-05T02:22:34.559Z,99718.09
2023-03-05T02:23:23.873Z,99721.72
2023-03-05T02:24:20.102Z,99716.84
2023-03-05T02:25:16.302Z,99721.56
2023-03-05T02:26:09.335Z,99719.91
2023-03-05T02:26:56.400Z,99716.53
2023-03-05T02:27:47.200Z,99719.19
2023-03-05T02:28:43.751Z,99727.59
2023-03-05T02:29:32.352Z,99712.88
2023-03-05T02:30:19.531Z,99724.25
2023-03-05T02:31:12.435Z,99717.38
2023-03-05T02:31:59.619Z,99723.28
2023-03-05T02:32:46.771Z,99725.63
2023-03-05T02:33:33.913Z,99718.91
2023-03-05T02:34:21.037Z,99711.31
2023-03-05T02:35:08.528Z,99712.59
2023-03-05T02:35:55.685Z,99712.59
2023-03-05T02:36:42.741Z,99715.69
2023-03-05T02:37:29.759Z,99714.25
2023-03-05T02:38:20.299Z,99718.63
2023-03-05T02:39:09.856Z,99714.44
2023-03-05T02:39:56.878Z,99716.66
2023-03-05T02:40:44.051Z,99709.22
2023-03-05T02:41:31.148Z,99716.09
2023-03-05T02:42:18.373Z,99714.00
2023-03-05T02:43:05.655Z,99710.31
2023-03-05T02:43:52.812Z,99699.13
2023-03-05T02:44:39.820Z,99710.34
2023-03-05T02:45:26.981Z,99704.88
2023-03-05T02:46:14.264Z,99710.50
2023-03-05T02:47:01.269Z,99704.00
2023-03-05T02:47:48.255Z,99704.41
2023-03-05T02:48:35.298Z,99704.72
2023-03-05T02:49:22.320Z,99707.66
2023-03-05T02:50:11.680Z,99704.00
2023-03-05T02:50:58.688Z,99703.06
2023-03-05T02:51:45.749Z,99703.19
2023-03-05T02:52:33.412Z,99702.03
2023-03-05T02:53:20.464Z,99707.09
2023-03-05T02:54:07.647Z,99707.81
2023-03-05T02:54:54.757Z,99703.19
2023-03-05T02:55:41.733Z,99707.53
2023-03-05T02:56:28.750Z,99710.31
2023-03-05T02:57:16.320Z,99700.66
2023-03-05T02:58:03.382Z,99705.56
2023-03-05T02:58:50.316Z,99700.22
2023-03-05T02:59:37.374Z,99697.53
2023-03-05T03:00:24.757Z,99692.50
2023-03-05T03:01:12.168Z,99692.59
2023-03-05T03:01:59.178Z,99693.19
2023-03-05T03:02:46.317Z,99695.87
2023-03-05T03:03:33.346Z,99693.47
2023-03-05T03:04:20.368Z,99684.50
2023-03-05T03:05:07.935Z,99693.78
2023-03-05T03:05:54.974Z,99692.38
2023-03-05T03:06:41.994Z,99688.56
2023-03-05T03:07:28.969Z,99691.25
2023-03-05T03:08:16.123Z,99689.25
2023-03-05T03:09:03.454Z,99685.28
2023-03-05T03:09:50.531Z,99688.37
2023-03-05T03:10:37.621Z,99687.38
2023-03-05T03:11:24.633Z,99693.03
2023-03-05T03:12:12.294Z,99686.16
2023-03-05T03:12:59.370Z,99693.03
2023-03-05T03:13:46.462Z,99693.47
2023-03-05T03:14:39.318Z,99688.97
2023-03-05T03:15:26.554Z,99695.87
2023-03-05T03:16:15.345Z,99688.69
2023-03-05T03:17:02.385Z,99693.84
2023-03-05T03:17:49.405Z,99689.91
2023-03-05T03:18:36.800Z,99691.62
2023-03-05T03:19:23.937Z,99693.72
2023-03-05T03:20:14.432Z,99689.66
2023-03-05T03:21:01.845Z,99688.00
2023-03-05T03:21:50.519Z,99687.69
2023-03-05T03:22:37.932Z,99696.72
2023-03-05T03:23:25.167Z,99688.37
2023-03-05T03:24:12.166Z,99693.19
2023-03-05T03:24:59.288Z,99699.34
2023-03-05T03:25:46.228Z,99695.25
2023-03-05T03:26:33.334Z,99697.66
2023-03-05T03:27:20.324Z,99693.28
2023-03-05T03:28:07.327Z,99692.19
2023-03-05T03:28:54.423Z,99696.53
2023-03-05T03:29:41.468Z,99692.59
2023-03-05T03:30:28.508Z,99691.19
2023-03-05T03:31:15.678Z,99696.25
2023-03-05T03:32:03.139Z,99693.16
2023-03-05T03:32:51.937Z,99691.50
2023-03-05T03:33:38.855Z,99698.50
2023-03-05T03:34:26.942Z,99688.66
2023-03-05T03:35:14.410Z,99691.06
2023-03-05T03:36:01.647Z,99686.84
2023-03-05T03:36:49.560Z,99695.69
2023-03-05T03:37:36.730Z,99688.37
2023-03-05T03:38:23.731Z,99686.28
2023-03-05T03:39:11.393Z,99683.75
2023-03-05T03:39:58.541Z,99690.34
2023-03-05T03:40:45.532Z,99688.50
2023-03-05T03:41:33.500Z,99689.66
2023-03-05T03:42:21.659Z,99687.13
2023-03-05T03:43:08.973Z,99690.34
2023-03-05T03:43:55.988Z,99680.37
2023-03-05T03:44:43.055Z,99689.41
2023-03-05T03:45:30.131Z,99683.88
2023-03-05T03:46:17.311Z,99683.44
2023-03-05T03:47:04.626Z,99684.59
2023-03-05T03:47:52.412Z,99688.94
2023-03-05T03:48:39.405Z,99688.37
2023-03-05T03:49:26.981Z,99689.22
2023-03-05T03:50:14.030Z,99685.97
2023-03-05T03:51:05.027Z,99683.00
2023-03-05T03:51:54.825Z,99679.63
2023-03-05T03:52:41.911Z,99691.62
2023-03-05T03:53:29.016Z,99687.69
2023-03-05T03:54:16.894Z,99685.72
2023-03-05T03:55:04.205Z,99684.06
2023-03-05T03:55:51.170Z,99681.34
2023-03-05T03:56:38.138Z,99683.31
2023-03-05T03:57:25.174Z,99684.72
2023-03-05T03:58:12.457Z,99687.38
2023-03-05T03:58:59.507Z,99687.63
2023-03-05T03:59:46.513Z,99684.00
2023-03-05T04:00:33.523Z,99681.91
2023-03-05T04:01:21.381Z,99685.56
2023-03-05T04:02:08.446Z,99680.81
2023-03-05T04:02:55.477Z,99678.66
2023-03-05T04:03:42.492Z,99676.69
2023-03-05T04:04:30.565Z,99676.41
2023-03-05T04:05:17.824Z,99672.91
2023-03-05T04:06:05.174Z,99676.69
2023-03-05T04:06:52.347Z,99669.25
2023-03-05T04:07:39.382Z,99668.66
2023-03-05T04:08:26.489Z,99675.72
2023-03-05T04:09:13.478Z,99671.22
2023-03-05T04:10:00.471Z,99672.22
2023-03-05T04:10:47.446Z,99677.97
2023-03-05T04:11:35.579Z,99667.41
2023-03-05T04:12:22.972Z,99668.94
2023-03-05T04:13:10.009Z,99662.75
2023-03-05T04:13:56.997Z,99663.59
2023-03-05T04:14:48.408Z,99669.25
2023-03-05T04:15:35.406Z,99665.44
2023-03-05T04:16:22.765Z,99666.56
2023-03-05T04:17:09.768Z,99667.66
2023-03-05T04:17:56.760Z,99673.19
2023-03-05T04:18:43.835Z,99675.88
2023-03-05T04:19:31.088Z,99667.28
2023-03-05T04:20:18.271Z,99666.44
2023-03-05T04:21:06.162Z,99658.25
2023-03-05T04:21:53.132Z,99663.72
2023-03-05T04:22:40.156Z,99667.13
2023-03-05T04:23:27.162Z,99667.56
2023-03-05T04:24:14.260Z,99660.84
2023-03-05T04:25:03.943Z,99660.41
2023-03-05T04:25:50.989Z,99662.50
2023-03-05T04:26:37.989Z,99654.97
2023-03-05T04:27:25.081Z,99664.59
2023-03-05T04:28:12.496Z,99665.16
2023-03-05T04:28:59.560Z,99663.59
2023-03-05T04:29:46.635Z,99661.78
2023-03-05T04:30:34.060Z,99656.59
2023-03-05T04:31:21.244Z,99658.94
2023-03-05T04:32:08.857Z,99659.25
2023-03-05T04:32:55.928Z,99657.97
2023-03-05T04:33:43.013Z,99654.06
2023-03-05T04:34:30.156Z,99656.97
2023-03-05T04:35:18.033Z,99657.84
2023-03-05T04:36:05.360Z,99651.13
2023-03-05T04:36:52.528Z,99653.22
2023-03-05T04:37:39.561Z,99658.25
2023-03-05T04:38:26.519Z,99655.19
2023-03-05T04:39:13.477Z,99658.56
2023-03-05T04:40:00.624Z,99656.59
2023-03-05T04:40:48.046Z,99654.50
2023-03-05T04:41:35.144Z,99657.56
2023-03-05T04:42:22.209Z,99655.91
2023-03-05T04:43:09.282Z,99657.28
2023-03-05T04:43:56.189Z,99661.34
2023-03-05T04:44:43.224Z,99654.56
2023-03-05T04:45:30.323Z,99660.22
2023-03-05T04:46:17.336Z,99659.81
2023-03-05T04:47:04.639Z,99659.06
2023-03-05T04:47:51.679Z,99659.50
2023-03-05T04:48:38.727Z,99655.31
2023-03-05T04:49:25.848Z,99659.50
2023-03-05T04:50:13.125Z,99663.56
2023-03-05T04:51:00.164Z,99657.41
2023-03-05T04:51:47.180Z,99665.41
2023-03-05T04:52:34.159Z,99657.22
2023-03-05T04:53:21.237Z,99658.22
2023-03-05T04:54:08.811Z,99660.91
2023-03-05T04:54:55.751Z,99661.47
2023-03-05T04:55:43.702Z,99658.94
2023-03-05T04:56:30.638Z,99655.69
2023-03-05T04:57:17.894Z,99657.69
2023-03-05T04:58:04.984Z,99653.78
2023-03-05T04:58:51.997Z,99659.66
2023-03-05T04:59:39.198Z,99656.72
2023-03-05T05:00:26.397Z,99656.44
2023-03-05T05:01:13.566Z,99657.16
2023-03-05T05:02:00.694Z,99660.41
2023-03-05T05:02:50.442Z,99659.84
2023-03-05T05:03:37.613Z,99655.75
2023-03-05T05:04:24.691Z,99657.41
2023-03-05T05:05:17.297Z,99654.31
2023-03-05T05:06:04.485Z,99654.03
2023-03-05T05:06:51.528Z,99652.63
2023-03-05T05:07:38.526Z,99656.56
2023-03-05T05:08:26.016Z,99655.88
2023-03-05T05:09:13.201Z,99653.34
2023-03-05T05:10:00.248Z,99652.06
2023-03-05T05:10:47.287Z,99654.41
2023-03-05T05:11:34.376Z,99648.09
2023-03-05T05:12:21.496Z,99655.69
2023-03-05T05:13:08.615Z,99655.53
2023-03-05T05:13:56.796Z,99645.81
2023-03-05T05:14:43.917Z,99650.47
2023-03-05T05:15:32.527Z,99658.22
2023-03-05T05:16:19.571Z,99656.41
2023-03-05T05:17:06.716Z,99656.41
2023-03-05T05:17:53.896Z,99658.22
2023-03-05T05:18:41.002Z,99657.09
2023-03-05T05:19:28.084Z,99655.12
2023-03-05T05:20:16.228Z,99661.22
2023-03-05T05:21:07.883Z,99659.66
2023-03-05T05:21:54.941Z,99654.56
2023-03-05T05:22:42.589Z,99655.31
2023-03-05T05:23:29.679Z,99656.00
2023-03-05T05:24:16.688Z,99663.88
2023-03-05T05:25:04.486Z,99651.22
2023-03-05T05:26:02.353Z,99654.03
2023-03-05T05:26:49.475Z,99657.41
2023-03-05T05:27:37.663Z,99652.06
2023-03-05T05:28:24.800Z,99663.13
2023-03-05T05:29:11.768Z,99657.94
2023-03-05T05:29:58.943Z,99655.88
2023-03-05T05:30:45.992Z,99658.94
2023-03-05T05:31:33.074Z,99662.31
2023-03-05T05:32:22.638Z,99665.00
2023-03-05T05:33:09.730Z,99661.34
2023-03-05T05:33:56.763Z,99664.13
2023-03-05T05:34:43.784Z,99668.91
2023-03-05T05:35:30.910Z,99661.28
2023-03-05T05:36:19.609Z,99664.41
2023-03-05T05:37:06.672Z,99662.56
2023-03-05T05:37:53.839Z,99663.28
2023-03-05T05:38:41.372Z,99660.34
2023-03-05T05:39:28.423Z,99664.28
2023-03-05T05:40:15.517Z,99669.06
2023-03-05T05:41:07.718Z,99674.56
2023-03-05T05:41:54.702Z,99668.53
2023-03-05T05:42:41.846Z,99663.88
2023-03-05T05:43:28.942Z,99672.03
2023-03-05T05:44:15.971Z,99667.53
2023-03-05T05:45:03.409Z,99667.25
2023-03-05T05:45:50.538Z,99667.53
2023-03-05T05:46:37.663Z,99661.59
2023-03-05T05:47:24.686Z,99671.94
2023-03-05T05:48:11.747Z,99663.94
2023-03-05T05:48:58.889Z,99672.94
2023-03-05T05:49:45.963Z,99673.94
2023-03-05T05:50:33.021Z,99667.88
2023-03-05T05:51:22.085Z,99671.13
2023-03-05T05:52:09.302Z,99667.88
2023-03-05T05:52:56.327Z,99667.06
2023-03-05T05:53:43.981Z,99672.50
2023-03-05T05:54:30.993Z,99664.91
2023-03-05T05:55:18.596Z,99669.16
2023-03-05T05:56:07.132Z,99663.56
2023-03-05T05:56:54.358Z,99668.28
2023-03-05T05:57:41.473Z,99663.34
2023-03-05T05:58:28.498Z,99670.25
2023-03-05T05:59:15.521Z,99669.12
2023-03-05T06:00:04.031Z,99669.53
2023-03-05T06:00:51.130Z,99674.97
2023-03-05T06:01:38.280Z,99667.69
2023-03-05T06:02:25.349Z,99665.31
2023-03-05T06:03:12.478Z,99668.25
2023-03-05T06:04:00.304Z,99671.75
2023-03-05T06:04:47.451Z,99674.50
2023-03-05T06:05:35.091Z,99669.97
2023-03-05T06:06:24.248Z,99672.66
2023-03-05T06:07:11.317Z,99666.75
2023-03-05T06:07:58.321Z,99669.97
2023-03-05T06:08:45.652Z,99668.69
2023-03-05T06:09:32.767Z,99671.81
2023-03-05T06:10:19.857Z,99667.06
2023-03-05T06:11:07.686Z,99668.59
2023-03-05T06:11:54.691Z,99674.50
2023-03-05T06:12:41.636Z,99670.81
2023-03-05T06:13:28.600Z,99668.97
2023-03-05T06:14:15.580Z,99675.91
2023-03-05T06:15:02.643Z,99671.91
2023-03-05T06:15:58.172Z,99668.63
2023-03-05T06:16:45.442Z,99665.13
2023-03-05T06:17:32.423Z,99664.16
2023-03-05T06:18:19.607Z,99676.06
2023-03-05T06:19:06.810Z,99668.03
2023-03-05T06:19:55.630Z,99671.16
2023-03-05T06:20:42.609Z,99664.84
2023-03-05T06:21:29.712Z,99668.13
2023-03-05T06:22:16.803Z,99677.84
2023-03-05T06:23:03.880Z,99664.28
2023-03-05T06:23:51.849Z,99668.63
2023-03-05T06:24:39.238Z,99674.13
2023-03-05T06:25:26.257Z,99672.87
2023-03-05T06:26:15.630Z,99667.84
2023-03-05T06:27:02.657Z,99673.44
2023-03-05T06:27:49.705Z,99674.22
2023-03-05T06:28:36.848Z,99673.31
2023-03-05T06:29:23.932Z,99671.38
2023-03-05T06:30:12.251Z,99668.66
2023-03-05T06:31:10.451Z,99675.44
2023-03-05T06:31:57.504Z,99682.88
2023-03-05T06:32:44.652Z,99681.87
2023-03-05T06:33:31.862Z,99673.41
2023-03-05T06:34:18.786Z,99686.59
2023-03-05T06:35:06.521Z,99679.44
2023-03-05T06:35:53.578Z,99678.84
2023-03-05T06:36:40.814Z,99687.09
2023-03-05T06:37:27.805Z,99681.56
2023-03-05T06:38:16.355Z,99681.75
2023-03-05T06:39:05.198Z,99682.44
2023-03-05T06:39:52.436Z,99683.31
2023-03-05T06:40:40.886Z,99685.53
2023-03-05T06:41:30.855Z,99679.13
2023-03-05T06:42:20.904Z,99683.88
2023-03-05T06:43:07.842Z,99678.75
2023-03-05T06:43:55.575Z,99677.38
2023-03-05T06:44:42.760Z,99682.59
2023-03-05T06:45:29.797Z,99678.91
2023-03-05T06:46:28.153Z,99681.53
2023-03-05T06:47:15.384Z,99676.06
2023-03-05T06:48:02.382Z,99675.31
2023-03-05T06:48:49.717Z,99679.97
2023-03-05T06:49:37.973Z,99676.69
2023-03-05T06:50:25.118Z,99675.00
2023-03-05T06:51:36.023Z,99675.16
2023-03-05T06:52:22.988Z,99676.16
2023-03-05T06:53:10.086Z,99680.97
2023-03-05T06:54:01.170Z,99676.00
2023-03-05T06:54:48.084Z,99681.19
2023-03-05T06:55:40.055Z,99671.19
2023-03-05T06:56:27.339Z,99674.41
2023-03-05T06:57:16.260Z,99668.06
2023-03-05T06:58:03.404Z,99673.53
2023-03-05T06:58:51.925Z,99676.62
2023-03-05T06:59:38.985Z,99673.53
2023-03-05T07:00:29.822Z,99676.75
2023-03-05T07:01:17.125Z,99679.81
2023-03-05T07:02:04.323Z,99677.53
2023-03-05T07:02:51.445Z,99673.13
2023-03-05T07:03:40.510Z,99677.59
2023-03-05T07:04:27.649Z,99672.84
2023-03-05T07:05:14.564Z,99674.09
2023-03-05T07:06:05.936Z,99666.91
2023-03-05T07:06:52.846Z,99668.81
2023-03-05T07:07:39.772Z,99672.78
2023-03-05T07:08:26.639Z,99665.91
2023-03-05T07:09:16.424Z,99662.69
2023-03-05T07:10:04.507Z,99669.78
2023-03-05T07:10:51.368Z,99667.81
2023-03-05T07:11:38.360Z,99669.19
2023-03-05T07:12:25.369Z,99659.16
2023-03-05T07:13:12.334Z,99661.84
2023-03-05T07:14:00.176Z,99666.59
2023-03-05T07:14:47.660Z,99671.50
2023-03-05T07:15:34.826Z,99666.75
2023-03-05T07:16:28.127Z,99672.87
2023-03-05T07:17:16.762Z,99663.63
2023-03-05T07:18:04.187Z,99676.53
2023-03-05T07:18:51.339Z,99668.03
2023-03-05T07:19:38.915Z,99672.25
2023-03-05T07:20:25.856Z,99670.19
2023-03-05T07:21:17.986Z,99678.69
2023-03-05T07:22:07.220Z,99674.41
2023-03-05T07:22:54.261Z,99679.91
2023-03-05T07:23:41.348Z,99675.00
2023-03-05T07:24:30.531Z,99666.28
2023-03-05T07:25:22.434Z,99666.84
2023-03-05T07:26:11.068Z,99668.44
2023-03-05T07:27:01.078Z,99668.44
2023-03-05T07:27:49.939Z,99668.97
2023-03-05T07:28:37.310Z,99678.75
2023-03-05T07:29:25.688Z,99672.84
2023-03-05T07:30:13.948Z,99665.28
2023-03-05T07:31:07.159Z,99666.13
2023-03-05T07:31:55.685Z,99667.03
2023-03-05T07:32:42.941Z,99668.88
2023-03-05T07:33:33.854Z,99668.19
2023-03-05T07:34:31.454Z,99662.69
2023-03-05T07:35:19.495Z,99663.44
2023-03-05T07:36:10.178Z,99666.81
2023-03-05T07:36:57.751Z,99668.88
2023-03-05T07:37:44.812Z,99659.78
2023-03-05T07:38:32.847Z,99665.28
2023-03-05T07:39:22.202Z,99659.31
2023-03-05T07:40:13.094Z,99661.53
2023-03-05T07:41:05.218Z,99654.38
2023-03-05T07:41:53.094Z,99653.22
2023-03-05T07:42:40.196Z,99657.59
2023-03-05T07:43:27.556Z,99658.28
2023-03-05T07:44:15.099Z,99658.28
2023-03-05T07:45:02.436Z,99647.09
2023-03-05T07:45:49.516Z,99651.44
2023-03-05T07:46:36.702Z,99654.31
2023-03-05T07:47:28.186Z,99668.84
2023-03-05T07:48:17.873Z,99667.00
2023-03-05T07:49:06.368Z,99660.69
2023-03-05T07:49:53.601Z,99663.09
2023-03-05T07:50:40.919Z,99656.50
2023-03-05T07:51:31.186Z,99655.03
2023-03-05T07:52:18.320Z,99657.03
2023-03-05T07:53:05.367Z,99658.84
2023-03-05T07:53:53.830Z,99654.72
2023-03-05T07:54:41.082Z,99661.44
2023-03-05T07:55:28.098Z,99664.31
2023-03-05T07:56:22.490Z,99650.97
2023-03-05T07:57:12.764Z,99649.47
2023-03-05T07:57:59.739Z,99644.59
2023-03-05T07:58:46.780Z,99645.81
2023-03-05T07:59:33.927Z,99648.41
2023-03-05T08:00:21.111Z,99648.44
2023-03-05T08:01:15.613Z,99644.59
2023-03-05T08:02:02.626Z,99645.78
2023-03-05T08:02:51.673Z,99641.47
2023-03-05T08:03:39.827Z,99642.66
2023-03-05T08:04:27.248Z,99642.84
2023-03-05T08:05:14.910Z,99635.81
2023-03-05T08:06:06.328Z,99633.63
2023-03-05T08:06:53.400Z,99637.69
2023-03-05T08:07:40.579Z,99638.81
2023-03-05T08:08:27.720Z,99639.81
2023-03-05T08:09:14.720Z,99635.97
2023-03-05T08:10:01.763Z,99632.81
2023-03-05T08:10:48.888Z,99641.56
2023-03-05T08:11:35.882Z,99641.44
2023-03-05T08:12:23.560Z,99636.69
2023-03-05T08:13:11.064Z,99639.56
2023-03-05T08:13:59.756Z,99641.91
2023-03-05T08:14:48.583Z,99647.50
2023-03-05T08:15:38.258Z,99639.94
2023-03-05T08:16:27.354Z,99643.66
2023-03-05T08:17:14.462Z,99635.22
2023-03-05T08:18:01.494Z,99640.84
2023-03-05T08:18:50.035Z,99641.53
2023-03-05T08:19:37.049Z,99635.56
2023-03-05T08:20:24.567Z,99635.41
2023-03-05T08:21:37.975Z,99635.78
2023-03-05T08:22:24.997Z,99625.91
2023-03-05T08:23:12.086Z,99623.75
2023-03-05T08:24:00.995Z,99616.88
2023-03-05T08:24:48.392Z,99628.97
2023-03-05T08:25:35.811Z,99632.03
2023-03-05T08:26:25.159Z,99635.84
2023-03-05T08:27:13.084Z,99631.16
2023-03-05T08:28:01.177Z,99639.91
2023-03-05T08:28:49.548Z,99638.06
2023-03-05T08:29:36.900Z,99638.06
2023-03-05T08:30:27.609Z,99639.25
2023-03-05T08:31:16.658Z,99637.91
2023-03-05T08:32:04.022Z,99640.44
2023-03-05T08:32:51.100Z,99643.31
2023-03-05T08:33:38.720Z,99643.00
2023-03-05T08:34:25.732Z,99642.16
2023-03-05T08:35:12.939Z,99638.59
2023-03-05T08:36:00.179Z,99639.94
2023-03-05T08:36:48.313Z,99635.59
2023-03-05T08:37:35.342Z,99637.63
2023-03-05T08:38:22.333Z,99633.41
2023-03-05T08:39:10.223Z,99641.66
2023-03-05T08:39:59.206Z,99634.94
2023-03-05T08:40:46.247Z,99638.16
2023-03-05T08:41:33.719Z,99633.63
2023-03-05T08:42:20.702Z,99631.09
2023-03-05T08:43:08.294Z,99634.94
2023-03-05T08:43:55.621Z,99627.53
2023-03-05T08:44:42.675Z,99634.25
2023-03-05T08:45:30.218Z,99636.94
2023-03-05T08:46:17.636Z,99633.72
2023-03-05T08:47:04.766Z,99635.94
2023-03-05T08:47:51.779Z,99639.44
2023-03-05T08:48:38.974Z,99635.06
2023-03-05T08:49:26.016Z,99630.50
2023-03-05T08:50:13.074Z,99634.91
2023-03-05T08:51:06.222Z,99625.63
2023-03-05T08:51:53.255Z,99624.41
2023-03-05T08:52:40.407Z,99625.41
2023-03-05T08:53:27.462Z,99628.69
2023-03-05T08:54:14.571Z,99621.06
2023-03-05T08:55:01.658Z,99623.59
2023-03-05T08:55:58.575Z,99621.88
2023-03-05T08:56:46.359Z,99617.84
2023-03-05T08:57:33.581Z,99617.00
2023-03-05T08:58:20.648Z,99625.38
2023-03-05T08:59:08.423Z,99622.34
2023-03-05T08:59:55.448Z,99624.72
2023-03-05T09:00:42.570Z,99622.66
2023-03-05T09:01:31.626Z,99631.41
2023-03-05T09:02:18.728Z,99630.44
2023-03-05T09:03:05.866Z,99625.72
2023-03-05T09:03:53.368Z,99618.63
2023-03-05T09:04:40.783Z,99623.84
2023-03-05T09:05:27.967Z,99622.25
2023-03-05T09:06:14.956Z,99620.94
2023-03-05T09:07:02.021Z,99620.63
2023-03-05T09:07:49.151Z,99614.09
2023-03-05T09:08:36.980Z,99621.81
2023-03-05T09:09:24.272Z,99618.09
2023-03-05T09:10:13.870Z,99611.87
2023-03-05T09:11:06.396Z,99618.97
2023-03-05T09:11:53.465Z,99620.25
2023-03-05T09:12:43.493Z,99620.28
2023-03-05T09:13:30.728Z,99615.38
2023-03-05T09:14:18.243Z,99619.41
2023-03-05T09:15:08.531Z,99608.69
2023-03-05T09:15:57.765Z,99619.97
2023-03-05T09:16:45.009Z,99608.47
2023-03-05T09:17:32.085Z,99617.59
2023-03-05T09:18:19.207Z,99613.09
2023-03-05T09:19:09.215Z,99616.62
2023-03-05T09:19:56.240Z,99616.62
2023-03-05T09:20:43.303Z,99611.69
2023-03-05T09:21:30.484Z,99608.34
2023-03-05T09:22:17.688Z,99615.25
2023-03-05T09:23:04.805Z,99614.44
2023-03-05T09:23:52.086Z,99613.50
2023-03-05T09:24:39.201Z,99607.41